sensor_id;sensor_type;location;lat;lon;timestamp;temperature;humidity
13970;DHT22;7057;49.984;8.404;2023-02-20T00:00:24;8.80;99.90
13970;DHT22;7057;49.984;8.404;2023-02-20T00:02:52;8.70;99.90
13970;DHT22;7057;49.984;8.404;2023-02-20T00:05:19;8.60;99.90
13970;DHT22;7057;49.984;8.404;2023-02-20T00:07:47;8.60;99.90
13970;DHT22;7057;49.984;8.404;2023-02-20T00:10:15;8.60;99.90
13970;DHT22;7057;49.984;8.404;2023-02-20T00:12:42;8.50;99.90
13970;DHT22;7057;49.984;8.404;2023-02-20T00:15:14;8.50;99.90
13970;DHT22;7057;49.984;8.404;2023-02-20T00:17:43;8.50;99.90
13970;DHT22;7057;49.984;8.404;2023-02-20T00:20:13;8.50;99.90
13970;DHT22;7057;49.984;8.404;2023-02-20T00:22:40;8.50;99.90
13970;DHT22;7057;49.984;8.404;2023-02-20T00:25:08;8.40;99.90
13970;DHT22;7057;49.984;8.404;2023-02-20T00:27:35;8.50;99.90
13970;DHT22;7057;49.984;8.404;2023-02-20T00:30:03;8.50;99.90
13970;DHT22;7057;49.984;8.404;2023-02-20T00:32:31;8.50;99.90
13970;DHT22;7057;49.984;8.404;2023-02-20T00:34:59;8.50;99.90
13970;DHT22;7057;49.984;8.404;2023-02-20T00:37:26;8.50;99.90
13970;DHT22;7057;49.984;8.404;2023-02-20T00:39:53;8.40;99.90
13970;DHT22;7057;49.984;8.404;2023-02-20T00:42:21;8.40;99.90
13970;DHT22;7057;49.984;8.404;2023-02-20T00:44:48;8.30;99.90
13970;DHT22;7057;49.984;8.404;2023-02-20T00:47:15;8.40;99.90
13970;DHT22;7057;49.984;8.404;2023-02-20T00:49:42;8.30;99.90
13970;DHT22;7057;49.984;8.404;2023-02-20T00:52:11;8.10;99.90
13970;DHT22;7057;49.984;8.404;2023-02-20T00:54:38;8.00;99.90
13970;DHT22;7057;49.984;8.404;2023-02-20T00:57:05;7.90;99.90
13970;DHT22;7057;49.984;8.404;2023-02-20T00:59:32;7.80;99.90
13970;DHT22;7057;49.984;8.404;2023-02-20T01:01:59;7.70;99.90
13970;DHT22;7057;49.984;8.404;2023-02-20T01:04:26;7.60;99.90
13970;DHT22;7057;49.984;8.404;2023-02-20T01:06:53;7.50;99.90
13970;DHT22;7057;49.984;8.404;2023-02-20T01:09:22;7.50;99.90
13970;DHT22;7057;49.984;8.404;2023-02-20T01:11:49;7.40;99.90
13970;DHT22;7057;49.984;8.404;2023-02-20T01:14:16;7.40;99.90
13970;DHT22;7057;49.984;8.404;2023-02-20T01:16:44;7.30;99.90
13970;DHT22;7057;49.984;8.404;2023-02-20T01:19:11;7.20;99.90
13970;DHT22;7057;49.984;8.404;2023-02-20T01:21:39;7.10;99.90
13970;DHT22;7057;49.984;8.404;2023-02-20T01:24:06;7.00;99.90
13970;DHT22;7057;49.984;8.404;2023-02-20T01:26:35;6.90;99.90
13970;DHT22;7057;49.984;8.404;2023-02-20T01:29:02;6.90;99.90
13970;DHT22;7057;49.984;8.404;2023-02-20T01:31:30;7.00;99.90
13970;DHT22;7057;49.984;8.404;2023-02-20T01:33:57;7.00;99.90
13970;DHT22;7057;49.984;8.404;2023-02-20T01:36:24;7.00;99.90
13970;DHT22;7057;49.984;8.404;2023-02-20T01:38:52;6.90;99.90
13970;DHT22;7057;49.984;8.404;2023-02-20T01:41:21;6.90;99.90
13970;DHT22;7057;49.984;8.404;2023-02-20T01:43:50;6.80;99.90
13970;DHT22;7057;49.984;8.404;2023-02-20T01:46:51;6.80;99.90
13970;DHT22;7057;49.984;8.404;2023-02-20T01:49:24;6.70;99.90
13970;DHT22;7057;49.984;8.404;2023-02-20T01:51:56;6.60;99.90
13970;DHT22;7057;49.984;8.404;2023-02-20T01:54:25;6.60;99.90
13970;DHT22;7057;49.984;8.404;2023-02-20T01:56:56;6.50;99.90
13970;DHT22;7057;49.984;8.404;2023-02-20T01:59:26;6.50;99.90
13970;DHT22;7057;49.984;8.404;2023-02-20T02:01:55;6.50;99.90
13970;DHT22;7057;49.984;8.404;2023-02-20T02:04:23;6.50;99.90
13970;DHT22;7057;49.984;8.404;2023-02-20T02:06:51;6.60;99.90
13970;DHT22;7057;49.984;8.404;2023-02-20T02:09:25;6.60;99.90
13970;DHT22;7057;49.984;8.404;2023-02-20T02:11:54;6.50;99.90
13970;DHT22;7057;49.984;8.404;2023-02-20T02:14:21;6.50;99.90
13970;DHT22;7057;49.984;8.404;2023-02-20T02:17:02;6.50;99.90
13970;DHT22;7057;49.984;8.404;2023-02-20T02:20:00;6.50;99.90
13970;DHT22;7057;49.984;8.404;2023-02-20T02:25:37;6.50;99.90
13970;DHT22;7057;49.984;8.404;2023-02-20T02:31:44;6.60;99.90
13970;DHT22;7057;49.984;8.404;2023-02-20T02:37:33;6.60;99.90
13970;DHT22;7057;49.984;8.404;2023-02-20T02:40:03;6.70;99.90
13970;DHT22;7057;49.984;8.404;2023-02-20T02:42:39;6.80;99.90
13970;DHT22;7057;49.984;8.404;2023-02-20T02:45:13;6.90;99.90
13970;DHT22;7057;49.984;8.404;2023-02-20T02:47:47;7.00;99.90
13970;DHT22;7057;49.984;8.404;2023-02-20T02:50:20;7.00;99.90
13970;DHT22;7057;49.984;8.404;2023-02-20T02:52:49;7.00;99.90
13970;DHT22;7057;49.984;8.404;2023-02-20T02:55:21;7.00;99.90
13970;DHT22;7057;49.984;8.404;2023-02-20T02:57:49;7.00;99.90
13970;DHT22;7057;49.984;8.404;2023-02-20T03:00:20;7.00;99.90
13970;DHT22;7057;49.984;8.404;2023-02-20T03:02:54;7.00;99.90
13970;DHT22;7057;49.984;8.404;2023-02-20T03:05:27;7.00;99.90
13970;DHT22;7057;49.984;8.404;2023-02-20T03:08:07;7.00;99.90
13970;DHT22;7057;49.984;8.404;2023-02-20T03:10:39;6.90;99.90
13970;DHT22;7057;49.984;8.404;2023-02-20T03:13:09;7.00;99.90
13970;DHT22;7057;49.984;8.404;2023-02-20T03:15:40;7.00;99.90
13970;DHT22;7057;49.984;8.404;2023-02-20T03:18:14;6.90;99.90
13970;DHT22;7057;49.984;8.404;2023-02-20T03:20:45;6.90;99.90
13970;DHT22;7057;49.984;8.404;2023-02-20T03:23:17;6.90;99.90
13970;DHT22;7057;49.984;8.404;2023-02-20T03:25:50;6.90;99.90
13970;DHT22;7057;49.984;8.404;2023-02-20T03:28:22;6.90;99.90
13970;DHT22;7057;49.984;8.404;2023-02-20T03:30:54;6.90;99.90
13970;DHT22;7057;49.984;8.404;2023-02-20T03:33:28;6.80;99.90
13970;DHT22;7057;49.984;8.404;2023-02-20T03:36:17;6.80;99.90
13970;DHT22;7057;49.984;8.404;2023-02-20T03:39:07;6.90;99.90
13970;DHT22;7057;49.984;8.404;2023-02-20T03:41:55;6.80;99.90
13970;DHT22;7057;49.984;8.404;2023-02-20T03:44:41;6.80;99.90
13970;DHT22;7057;49.984;8.404;2023-02-20T03:47:12;6.70;99.90
13970;DHT22;7057;49.984;8.404;2023-02-20T03:49:42;6.70;99.90
13970;DHT22;7057;49.984;8.404;2023-02-20T03:52:10;6.70;99.90
13970;DHT22;7057;49.984;8.404;2023-02-20T03:54:39;6.70;99.90
13970;DHT22;7057;49.984;8.404;2023-02-20T03:57:10;6.60;99.90
13970;DHT22;7057;49.984;8.404;2023-02-20T03:59:41;6.50;99.90
13970;DHT22;7057;49.984;8.404;2023-02-20T04:02:14;6.40;99.90
13970;DHT22;7057;49.984;8.404;2023-02-20T04:04:45;6.30;99.90
13970;DHT22;7057;49.984;8.404;2023-02-20T04:07:17;6.30;99.90
13970;DHT22;7057;49.984;8.404;2023-02-20T04:09:46;6.20;99.90
13970;DHT22;7057;49.984;8.404;2023-02-20T04:12:17;6.10;99.90
13970;DHT22;7057;49.984;8.404;2023-02-20T04:14:46;6.10;99.90
13970;DHT22;7057;49.984;8.404;2023-02-20T04:17:21;6.10;99.90
13970;DHT22;7057;49.984;8.404;2023-02-20T04:19:50;6.10;99.90
13970;DHT22;7057;49.984;8.404;2023-02-20T04:22:22;6.10;99.90
13970;DHT22;7057;49.984;8.404;2023-02-20T04:24:55;6.00;99.90
13970;DHT22;7057;49.984;8.404;2023-02-20T04:27:24;6.00;99.90
13970;DHT22;7057;49.984;8.404;2023-02-20T04:29:51;5.90;99.90
13970;DHT22;7057;49.984;8.404;2023-02-20T04:32:19;5.90;99.90
13970;DHT22;7057;49.984;8.404;2023-02-20T04:34:46;5.80;99.90
13970;DHT22;7057;49.984;8.404;2023-02-20T04:37:15;5.80;99.90
13970;DHT22;7057;49.984;8.404;2023-02-20T04:39:44;5.70;99.90
13970;DHT22;7057;49.984;8.404;2023-02-20T04:42:13;5.60;99.90
13970;DHT22;7057;49.984;8.404;2023-02-20T04:44:40;5.60;99.90
13970;DHT22;7057;49.984;8.404;2023-02-20T04:47:12;5.60;99.90
13970;DHT22;7057;49.984;8.404;2023-02-20T04:49:39;5.50;99.90
13970;DHT22;7057;49.984;8.404;2023-02-20T04:52:06;5.40;99.90
13970;DHT22;7057;49.984;8.404;2023-02-20T04:54:34;5.40;99.90
13970;DHT22;7057;49.984;8.404;2023-02-20T04:57:01;5.30;99.90
13970;DHT22;7057;49.984;8.404;2023-02-20T04:59:29;5.30;99.90
13970;DHT22;7057;49.984;8.404;2023-02-20T05:01:56;5.20;99.90
13970;DHT22;7057;49.984;8.404;2023-02-20T05:04:25;5.20;99.90
13970;DHT22;7057;49.984;8.404;2023-02-20T05:06:54;5.10;99.90
13970;DHT22;7057;49.984;8.404;2023-02-20T05:09:22;5.10;99.90
13970;DHT22;7057;49.984;8.404;2023-02-20T05:11:49;5.00;99.90
13970;DHT22;7057;49.984;8.404;2023-02-20T05:14:17;5.00;99.90
13970;DHT22;7057;49.984;8.404;2023-02-20T05:16:46;5.00;99.90
13970;DHT22;7057;49.984;8.404;2023-02-20T05:19:14;4.90;99.90
13970;DHT22;7057;49.984;8.404;2023-02-20T05:21:41;4.90;99.90
13970;DHT22;7057;49.984;8.404;2023-02-20T05:24:26;5.00;99.90
13970;DHT22;7057;49.984;8.404;2023-02-20T05:26:55;4.90;99.90
13970;DHT22;7057;49.984;8.404;2023-02-20T05:29:22;4.90;99.90
13970;DHT22;7057;49.984;8.404;2023-02-20T05:31:51;4.90;99.90
13970;DHT22;7057;49.984;8.404;2023-02-20T05:34:18;4.80;99.90
13970;DHT22;7057;49.984;8.404;2023-02-20T05:36:46;4.80;99.90
13970;DHT22;7057;49.984;8.404;2023-02-20T05:39:13;4.80;99.90
13970;DHT22;7057;49.984;8.404;2023-02-20T05:41:40;4.70;99.90
13970;DHT22;7057;49.984;8.404;2023-02-20T05:44:07;4.70;99.90
13970;DHT22;7057;49.984;8.404;2023-02-20T05:46:38;4.70;99.90
13970;DHT22;7057;49.984;8.404;2023-02-20T05:49:07;4.70;99.90
13970;DHT22;7057;49.984;8.404;2023-02-20T05:51:34;4.60;99.90
13970;DHT22;7057;49.984;8.404;2023-02-20T05:54:03;4.60;99.90
13970;DHT22;7057;49.984;8.404;2023-02-20T05:56:30;4.50;99.90
13970;DHT22;7057;49.984;8.404;2023-02-20T05:58:58;4.50;99.90
13970;DHT22;7057;49.984;8.404;2023-02-20T06:01:28;4.40;99.90
13970;DHT22;7057;49.984;8.404;2023-02-20T06:03:55;4.40;99.90
13970;DHT22;7057;49.984;8.404;2023-02-20T06:06:24;4.40;99.90
13970;DHT22;7057;49.984;8.404;2023-02-20T06:08:57;4.30;99.90
13970;DHT22;7057;49.984;8.404;2023-02-20T06:11:24;4.30;99.90
13970;DHT22;7057;49.984;8.404;2023-02-20T06:13:51;4.50;99.90
13970;DHT22;7057;49.984;8.404;2023-02-20T06:16:22;4.30;99.90
13970;DHT22;7057;49.984;8.404;2023-02-20T06:18:49;4.30;99.90
13970;DHT22;7057;49.984;8.404;2023-02-20T06:21:16;4.30;99.90
13970;DHT22;7057;49.984;8.404;2023-02-20T06:23:45;4.30;99.90
13970;DHT22;7057;49.984;8.404;2023-02-20T06:26:13;4.30;99.90
13970;DHT22;7057;49.984;8.404;2023-02-20T06:28:40;4.30;99.90
13970;DHT22;7057;49.984;8.404;2023-02-20T06:31:09;4.30;99.90
13970;DHT22;7057;49.984;8.404;2023-02-20T06:33:36;4.30;99.90
13970;DHT22;7057;49.984;8.404;2023-02-20T06:36:04;4.30;99.90
13970;DHT22;7057;49.984;8.404;2023-02-20T06:38:32;4.30;99.90
13970;DHT22;7057;49.984;8.404;2023-02-20T06:41:01;4.30;99.90
13970;DHT22;7057;49.984;8.404;2023-02-20T06:43:28;4.30;99.90
13970;DHT22;7057;49.984;8.404;2023-02-20T06:45:55;4.30;99.90
13970;DHT22;7057;49.984;8.404;2023-02-20T06:48:22;4.30;99.90
13970;DHT22;7057;49.984;8.404;2023-02-20T06:50:49;4.30;99.90
13970;DHT22;7057;49.984;8.404;2023-02-20T06:53:20;4.30;99.90
13970;DHT22;7057;49.984;8.404;2023-02-20T06:55:47;4.40;99.90
13970;DHT22;7057;49.984;8.404;2023-02-20T06:58:15;4.40;99.90
13970;DHT22;7057;49.984;8.404;2023-02-20T07:00:42;4.40;99.90
13970;DHT22;7057;49.984;8.404;2023-02-20T07:03:09;4.40;99.90
13970;DHT22;7057;49.984;8.404;2023-02-20T07:05:37;4.40;99.90
13970;DHT22;7057;49.984;8.404;2023-02-20T07:08:04;4.50;99.90
13970;DHT22;7057;49.984;8.404;2023-02-20T07:10:31;4.50;99.90
13970;DHT22;7057;49.984;8.404;2023-02-20T07:12:58;4.60;99.90
13970;DHT22;7057;49.984;8.404;2023-02-20T07:15:29;4.70;99.90
13970;DHT22;7057;49.984;8.404;2023-02-20T07:17:56;4.70;99.90
13970;DHT22;7057;49.984;8.404;2023-02-20T07:20:23;4.90;99.90
13970;DHT22;7057;49.984;8.404;2023-02-20T07:22:50;4.80;99.90
13970;DHT22;7057;49.984;8.404;2023-02-20T07:25:19;5.10;99.90
13970;DHT22;7057;49.984;8.404;2023-02-20T07:27:46;5.20;99.90
13970;DHT22;7057;49.984;8.404;2023-02-20T07:30:13;5.30;99.90
13970;DHT22;7057;49.984;8.404;2023-02-20T07:32:42;5.40;99.90
13970;DHT22;7057;49.984;8.404;2023-02-20T07:35:09;5.50;99.90
13970;DHT22;7057;49.984;8.404;2023-02-20T07:37:36;5.60;99.90
13970;DHT22;7057;49.984;8.404;2023-02-20T07:40:08;5.80;99.90
13970;DHT22;7057;49.984;8.404;2023-02-20T07:42:35;5.90;99.90
13970;DHT22;7057;49.984;8.404;2023-02-20T07:45:03;6.10;99.90
13970;DHT22;7057;49.984;8.404;2023-02-20T07:47:30;6.20;99.90
13970;DHT22;7057;49.984;8.404;2023-02-20T07:49:58;6.40;99.90
13970;DHT22;7057;49.984;8.404;2023-02-20T07:52:26;6.60;99.90
13970;DHT22;7057;49.984;8.404;2023-02-20T07:54:53;6.80;99.90
13970;DHT22;7057;49.984;8.404;2023-02-20T07:57:20;7.00;99.90
13970;DHT22;7057;49.984;8.404;2023-02-20T07:59:47;7.20;99.90
13970;DHT22;7057;49.984;8.404;2023-02-20T08:02:15;7.40;99.90
13970;DHT22;7057;49.984;8.404;2023-02-20T08:04:42;7.50;99.90
13970;DHT22;7057;49.984;8.404;2023-02-20T08:07:10;7.70;99.90
13970;DHT22;7057;49.984;8.404;2023-02-20T08:09:37;7.90;99.90
13970;DHT22;7057;49.984;8.404;2023-02-20T08:12:05;8.00;99.90
13970;DHT22;7057;49.984;8.404;2023-02-20T08:14:32;8.10;99.90
13970;DHT22;7057;49.984;8.404;2023-02-20T08:16:59;8.20;99.90
13970;DHT22;7057;49.984;8.404;2023-02-20T08:19:26;8.20;99.90
13970;DHT22;7057;49.984;8.404;2023-02-20T08:21:54;8.20;99.90
13970;DHT22;7057;49.984;8.404;2023-02-20T08:24:22;8.20;99.90
13970;DHT22;7057;49.984;8.404;2023-02-20T08:26:49;8.30;99.90
13970;DHT22;7057;49.984;8.404;2023-02-20T08:29:17;8.40;99.90
13970;DHT22;7057;49.984;8.404;2023-02-20T08:31:44;8.50;99.90
13970;DHT22;7057;49.984;8.404;2023-02-20T08:34:11;8.50;99.90
13970;DHT22;7057;49.984;8.404;2023-02-20T08:36:39;8.60;99.90
13970;DHT22;7057;49.984;8.404;2023-02-20T08:39:07;8.60;99.90
13970;DHT22;7057;49.984;8.404;2023-02-20T08:41:41;8.70;99.90
13970;DHT22;7057;49.984;8.404;2023-02-20T08:44:08;8.90;99.90
13970;DHT22;7057;49.984;8.404;2023-02-20T08:46:35;9.10;99.90
13970;DHT22;7057;49.984;8.404;2023-02-20T08:49:02;9.20;99.90
13970;DHT22;7057;49.984;8.404;2023-02-20T08:51:29;9.40;99.90
13970;DHT22;7057;49.984;8.404;2023-02-20T08:53:57;9.30;99.90
13970;DHT22;7057;49.984;8.404;2023-02-20T08:56:24;9.80;99.90
13970;DHT22;7057;49.984;8.404;2023-02-20T08:58:52;9.90;99.90
13970;DHT22;7057;49.984;8.404;2023-02-20T09:01:19;10.00;99.90
13970;DHT22;7057;49.984;8.404;2023-02-20T09:03:47;10.10;99.90
13970;DHT22;7057;49.984;8.404;2023-02-20T09:06:16;10.10;99.90
13970;DHT22;7057;49.984;8.404;2023-02-20T09:08:43;10.00;99.90
13970;DHT22;7057;49.984;8.404;2023-02-20T09:11:10;10.10;99.90
13970;DHT22;7057;49.984;8.404;2023-02-20T09:13:41;10.00;99.90
13970;DHT22;7057;49.984;8.404;2023-02-20T09:16:12;10.00;99.90
13970;DHT22;7057;49.984;8.404;2023-02-20T09:18:40;10.10;99.90
13970;DHT22;7057;49.984;8.404;2023-02-20T09:21:08;10.30;99.90
13970;DHT22;7057;49.984;8.404;2023-02-20T09:23:35;10.30;99.90
13970;DHT22;7057;49.984;8.404;2023-02-20T09:26:03;10.30;99.90
13970;DHT22;7057;49.984;8.404;2023-02-20T09:28:31;10.40;99.90
13970;DHT22;7057;49.984;8.404;2023-02-20T09:30:58;10.50;99.90
13970;DHT22;7057;49.984;8.404;2023-02-20T09:33:27;10.60;99.90
13970;DHT22;7057;49.984;8.404;2023-02-20T09:35:54;10.60;99.90
13970;DHT22;7057;49.984;8.404;2023-02-20T09:38:23;10.70;99.90
13970;DHT22;7057;49.984;8.404;2023-02-20T09:40:54;10.80;99.90
13970;DHT22;7057;49.984;8.404;2023-02-20T09:43:29;10.80;99.90
13970;DHT22;7057;49.984;8.404;2023-02-20T09:46:02;10.90;99.90
13970;DHT22;7057;49.984;8.404;2023-02-20T09:48:41;10.90;99.90
13970;DHT22;7057;49.984;8.404;2023-02-20T09:51:14;11.00;99.90
13970;DHT22;7057;49.984;8.404;2023-02-20T09:53:49;11.00;99.90
13970;DHT22;7057;49.984;8.404;2023-02-20T09:56:20;11.10;99.90
13970;DHT22;7057;49.984;8.404;2023-02-20T09:58:53;11.10;99.90
13970;DHT22;7057;49.984;8.404;2023-02-20T10:01:25;11.30;99.90
13970;DHT22;7057;49.984;8.404;2023-02-20T10:03:56;11.30;99.90
13970;DHT22;7057;49.984;8.404;2023-02-20T10:06:26;11.30;99.90
13970;DHT22;7057;49.984;8.404;2023-02-20T10:08:55;11.40;99.90
13970;DHT22;7057;49.984;8.404;2023-02-20T10:11:35;11.40;99.90
13970;DHT22;7057;49.984;8.404;2023-02-20T10:14:19;11.40;99.90
13970;DHT22;7057;49.984;8.404;2023-02-20T10:16:52;11.50;99.90
13970;DHT22;7057;49.984;8.404;2023-02-20T10:19:30;11.50;99.90
13970;DHT22;7057;49.984;8.404;2023-02-20T10:22:05;11.70;99.90
13970;DHT22;7057;49.984;8.404;2023-02-20T10:24:45;11.80;99.90
13970;DHT22;7057;49.984;8.404;2023-02-20T10:27:22;11.90;99.90
13970;DHT22;7057;49.984;8.404;2023-02-20T10:29:52;11.90;99.90
13970;DHT22;7057;49.984;8.404;2023-02-20T10:32:24;12.00;99.90
13970;DHT22;7057;49.984;8.404;2023-02-20T10:34:58;12.10;99.90
13970;DHT22;7057;49.984;8.404;2023-02-20T10:37:33;12.20;99.90
13970;DHT22;7057;49.984;8.404;2023-02-20T10:40:07;12.30;99.90
13970;DHT22;7057;49.984;8.404;2023-02-20T10:42:40;12.30;99.90
13970;DHT22;7057;49.984;8.404;2023-02-20T10:45:15;12.30;99.90
13970;DHT22;7057;49.984;8.404;2023-02-20T10:47:45;12.30;99.90
13970;DHT22;7057;49.984;8.404;2023-02-20T10:50:20;12.40;99.90
13970;DHT22;7057;49.984;8.404;2023-02-20T10:52:53;12.40;99.90
13970;DHT22;7057;49.984;8.404;2023-02-20T10:55:25;12.60;99.90
13970;DHT22;7057;49.984;8.404;2023-02-20T10:57:57;12.60;99.90
13970;DHT22;7057;49.984;8.404;2023-02-20T11:00:30;12.70;99.90
13970;DHT22;7057;49.984;8.404;2023-02-20T11:03:07;12.80;99.90
13970;DHT22;7057;49.984;8.404;2023-02-20T11:05:39;12.90;99.90
13970;DHT22;7057;49.984;8.404;2023-02-20T11:08:07;13.10;99.90
13970;DHT22;7057;49.984;8.404;2023-02-20T11:10:34;13.10;99.90
13970;DHT22;7057;49.984;8.404;2023-02-20T11:13:04;13.20;99.90
13970;DHT22;7057;49.984;8.404;2023-02-20T11:15:35;13.20;99.90
13970;DHT22;7057;49.984;8.404;2023-02-20T11:18:10;13.10;99.90
13970;DHT22;7057;49.984;8.404;2023-02-20T11:20:44;13.00;99.90
13970;DHT22;7057;49.984;8.404;2023-02-20T11:23:35;13.10;99.90
13970;DHT22;7057;49.984;8.404;2023-02-20T11:26:24;13.30;99.90
13970;DHT22;7057;49.984;8.404;2023-02-20T11:29:04;13.40;99.90
13970;DHT22;7057;49.984;8.404;2023-02-20T11:31:33;13.40;99.90
13970;DHT22;7057;49.984;8.404;2023-02-20T11:34:03;13.50;99.90
13970;DHT22;7057;49.984;8.404;2023-02-20T11:36:36;13.60;99.90
13970;DHT22;7057;49.984;8.404;2023-02-20T11:39:16;13.60;99.90
13970;DHT22;7057;49.984;8.404;2023-02-20T11:41:47;13.70;99.90
13970;DHT22;7057;49.984;8.404;2023-02-20T11:44:22;13.70;99.90
13970;DHT22;7057;49.984;8.404;2023-02-20T11:50:08;13.80;99.90
13970;DHT22;7057;49.984;8.404;2023-02-20T11:52:36;13.90;99.90
13970;DHT22;7057;49.984;8.404;2023-02-20T11:55:18;13.90;99.90
13970;DHT22;7057;49.984;8.404;2023-02-20T11:57:46;13.80;99.90
13970;DHT22;7057;49.984;8.404;2023-02-20T12:00:18;13.80;99.90
13970;DHT22;7057;49.984;8.404;2023-02-20T12:02:50;13.80;99.90
13970;DHT22;7057;49.984;8.404;2023-02-20T12:05:19;13.90;99.90
13970;DHT22;7057;49.984;8.404;2023-02-20T12:07:58;14.00;99.90
13970;DHT22;7057;49.984;8.404;2023-02-20T12:10:43;14.00;99.90
13970;DHT22;7057;49.984;8.404;2023-02-20T12:13:13;14.00;99.90
13970;DHT22;7057;49.984;8.404;2023-02-20T12:15:41;14.00;99.90
13970;DHT22;7057;49.984;8.404;2023-02-20T12:18:29;14.10;99.90
13970;DHT22;7057;49.984;8.404;2023-02-20T12:21:04;14.30;99.90
13970;DHT22;7057;49.984;8.404;2023-02-20T12:23:42;14.40;99.90
13970;DHT22;7057;49.984;8.404;2023-02-20T12:26:24;14.30;99.90
13970;DHT22;7057;49.984;8.404;2023-02-20T12:29:01;14.30;99.90
13970;DHT22;7057;49.984;8.404;2023-02-20T12:31:39;14.40;99.90
13970;DHT22;7057;49.984;8.404;2023-02-20T12:34:33;14.30;99.90
13970;DHT22;7057;49.984;8.404;2023-02-20T12:37:07;14.20;99.90
13970;DHT22;7057;49.984;8.404;2023-02-20T12:39:45;14.30;99.90
13970;DHT22;7057;49.984;8.404;2023-02-20T12:42:24;14.30;99.90
13970;DHT22;7057;49.984;8.404;2023-02-20T12:45:14;14.40;99.90
13970;DHT22;7057;49.984;8.404;2023-02-20T12:47:44;14.60;99.90
13970;DHT22;7057;49.984;8.404;2023-02-20T12:50:27;14.60;99.90
13970;DHT22;7057;49.984;8.404;2023-02-20T12:53:08;14.60;99.90
13970;DHT22;7057;49.984;8.404;2023-02-20T12:55:48;14.60;99.90
13970;DHT22;7057;49.984;8.404;2023-02-20T12:58:26;14.60;99.90
13970;DHT22;7057;49.984;8.404;2023-02-20T13:00:59;14.50;99.90
13970;DHT22;7057;49.984;8.404;2023-02-20T13:03:37;14.50;99.90
13970;DHT22;7057;49.984;8.404;2023-02-20T13:06:06;14.40;99.90
13970;DHT22;7057;49.984;8.404;2023-02-20T13:08:37;14.50;99.90
13970;DHT22;7057;49.984;8.404;2023-02-20T13:11:12;14.50;99.90
13970;DHT22;7057;49.984;8.404;2023-02-20T13:13:55;14.40;99.90
13970;DHT22;7057;49.984;8.404;2023-02-20T13:16:30;14.50;99.90
13970;DHT22;7057;49.984;8.404;2023-02-20T13:19:04;14.60;99.90
13970;DHT22;7057;49.984;8.404;2023-02-20T13:21:32;14.70;99.90
13970;DHT22;7057;49.984;8.404;2023-02-20T13:24:26;14.70;99.90
13970;DHT22;7057;49.984;8.404;2023-02-20T13:26:56;14.60;99.90
13970;DHT22;7057;49.984;8.404;2023-02-20T13:29:25;14.60;99.90
13970;DHT22;7057;49.984;8.404;2023-02-20T13:31:54;14.60;99.90
13970;DHT22;7057;49.984;8.404;2023-02-20T13:34:27;14.60;99.90
13970;DHT22;7057;49.984;8.404;2023-02-20T13:36:54;14.60;99.90
13970;DHT22;7057;49.984;8.404;2023-02-20T13:42:32;14.50;99.90
13970;DHT22;7057;49.984;8.404;2023-02-20T13:45:00;14.50;99.90
13970;DHT22;7057;49.984;8.404;2023-02-20T13:47:35;14.50;99.90
13970;DHT22;7057;49.984;8.404;2023-02-20T13:50:30;14.50;99.90
13970;DHT22;7057;49.984;8.404;2023-02-20T13:53:03;14.50;99.90
13970;DHT22;7057;49.984;8.404;2023-02-20T13:55:31;14.50;99.90
13970;DHT22;7057;49.984;8.404;2023-02-20T13:58:09;14.50;99.90
13970;DHT22;7057;49.984;8.404;2023-02-20T14:00:49;14.60;99.90
13970;DHT22;7057;49.984;8.404;2023-02-20T14:03:20;14.60;99.90
13970;DHT22;7057;49.984;8.404;2023-02-20T14:06:01;14.50;99.90
13970;DHT22;7057;49.984;8.404;2023-02-20T14:08:28;14.50;99.90
13970;DHT22;7057;49.984;8.404;2023-02-20T14:11:03;14.50;99.90
13970;DHT22;7057;49.984;8.404;2023-02-20T14:13:33;14.40;99.90
13970;DHT22;7057;49.984;8.404;2023-02-20T14:16:00;14.50;99.90
13970;DHT22;7057;49.984;8.404;2023-02-20T14:18:29;14.50;99.90
13970;DHT22;7057;49.984;8.404;2023-02-20T14:21:04;14.60;99.90
13970;DHT22;7057;49.984;8.404;2023-02-20T14:23:34;14.60;99.90
13970;DHT22;7057;49.984;8.404;2023-02-20T14:26:04;14.50;99.90
13970;DHT22;7057;49.984;8.404;2023-02-20T14:28:34;14.70;99.90
13970;DHT22;7057;49.984;8.404;2023-02-20T14:31:13;14.70;99.90
13970;DHT22;7057;49.984;8.404;2023-02-20T14:33:44;14.70;99.90
13970;DHT22;7057;49.984;8.404;2023-02-20T14:36:38;14.70;99.90
13970;DHT22;7057;49.984;8.404;2023-02-20T14:39:25;14.70;99.90
13970;DHT22;7057;49.984;8.404;2023-02-20T14:41:58;14.70;99.90
13970;DHT22;7057;49.984;8.404;2023-02-20T14:44:29;14.70;99.90
13970;DHT22;7057;49.984;8.404;2023-02-20T14:47:01;14.60;99.90
13970;DHT22;7057;49.984;8.404;2023-02-20T14:49:30;14.60;99.90
13970;DHT22;7057;49.984;8.404;2023-02-20T14:52:11;14.70;99.90
13970;DHT22;7057;49.984;8.404;2023-02-20T14:54:40;14.70;99.90
13970;DHT22;7057;49.984;8.404;2023-02-20T14:57:11;14.60;99.90
13970;DHT22;7057;49.984;8.404;2023-02-20T14:59:41;14.60;99.90
13970;DHT22;7057;49.984;8.404;2023-02-20T15:02:16;14.50;99.90
13970;DHT22;7057;49.984;8.404;2023-02-20T15:04:47;14.50;99.90
13970;DHT22;7057;49.984;8.404;2023-02-20T15:07:15;14.50;99.90
13970;DHT22;7057;49.984;8.404;2023-02-20T15:09:45;14.50;99.90
13970;DHT22;7057;49.984;8.404;2023-02-20T15:12:21;14.50;99.90
13970;DHT22;7057;49.984;8.404;2023-02-20T15:14:55;14.60;99.90
13970;DHT22;7057;49.984;8.404;2023-02-20T15:17:26;14.60;99.90
13970;DHT22;7057;49.984;8.404;2023-02-20T15:19:54;14.60;99.90
13970;DHT22;7057;49.984;8.404;2023-02-20T15:22:23;14.60;99.90
13970;DHT22;7057;49.984;8.404;2023-02-20T15:24:52;14.50;99.90
13970;DHT22;7057;49.984;8.404;2023-02-20T15:27:21;14.60;99.90
13970;DHT22;7057;49.984;8.404;2023-02-20T15:30:09;14.70;99.90
13970;DHT22;7057;49.984;8.404;2023-02-20T15:32:39;14.70;99.90
13970;DHT22;7057;49.984;8.404;2023-02-20T15:35:13;14.60;99.90
13970;DHT22;7057;49.984;8.404;2023-02-20T15:37:41;14.60;99.90
13970;DHT22;7057;49.984;8.404;2023-02-20T15:40:17;14.60;99.90
13970;DHT22;7057;49.984;8.404;2023-02-20T15:42:45;14.70;99.90
13970;DHT22;7057;49.984;8.404;2023-02-20T15:45:14;14.70;99.90
13970;DHT22;7057;49.984;8.404;2023-02-20T15:47:41;14.60;99.90
13970;DHT22;7057;49.984;8.404;2023-02-20T15:50:09;14.60;99.90
13970;DHT22;7057;49.984;8.404;2023-02-20T15:52:36;14.50;99.90
13970;DHT22;7057;49.984;8.404;2023-02-20T15:55:04;14.40;99.90
13970;DHT22;7057;49.984;8.404;2023-02-20T15:57:31;14.30;99.90
13970;DHT22;7057;49.984;8.404;2023-02-20T15:59:58;14.40;99.90
13970;DHT22;7057;49.984;8.404;2023-02-20T16:02:26;14.30;99.90
13970;DHT22;7057;49.984;8.404;2023-02-20T16:04:54;14.30;99.90
13970;DHT22;7057;49.984;8.404;2023-02-20T16:07:21;14.20;99.90
13970;DHT22;7057;49.984;8.404;2023-02-20T16:09:48;14.20;99.90
13970;DHT22;7057;49.984;8.404;2023-02-20T16:12:17;14.20;99.90
13970;DHT22;7057;49.984;8.404;2023-02-20T16:14:45;14.10;99.90
13970;DHT22;7057;49.984;8.404;2023-02-20T16:17:22;14.00;99.90
13970;DHT22;7057;49.984;8.404;2023-02-20T16:19:51;14.00;99.90
13970;DHT22;7057;49.984;8.404;2023-02-20T16:22:18;14.00;99.90
13970;DHT22;7057;49.984;8.404;2023-02-20T16:24:46;13.90;99.90
13970;DHT22;7057;49.984;8.404;2023-02-20T16:27:17;13.80;99.90
13970;DHT22;7057;49.984;8.404;2023-02-20T16:29:45;13.70;99.90
13970;DHT22;7057;49.984;8.404;2023-02-20T16:32:18;13.70;99.90
13970;DHT22;7057;49.984;8.404;2023-02-20T16:34:46;13.60;99.90